Time;durP1;ratioP1;P1;durP2;ratioP2;P2;SDS_P1;SDS_P2;PMS_P1;PMS_P2;Temp;Humidity;BMP_temperature;BMP_pressure;BME280_temperature;BME280_humidity;BME280_pressure;Samples;Min_cycle;Max_cycle;Signal;HPM_P1;HPM_P2
2023/03/05 00:02:03;;;;;;;7.15;5.40;;;;;;;;;;5054123;28;20029;-63
2023/03/05 00:04:29;;;;;;;8.32;5.82;;;;;;;;;;5054043;28;20530;-63
2023/03/05 00:06:55;;;;;;;7.53;5.70;;;;;;;;;;5053705;28;20541;-62
2023/03/05 00:09:20;;;;;;;8.50;5.53;;;;;;;;;;5053691;28;20086;-64
2023/03/05 00:11:46;;;;;;;7.70;5.60;;;;;;;;;;5053608;28;20111;-63
2023/03/05 00:14:12;;;;;;;7.90;5.68;;;;;;;;;;5053848;28;20112;-63
2023/03/05 00:16:38;;;;;;;8.25;5.85;;;;;;;;;;5053562;28;20492;-64
2023/03/05 00:19:04;;;;;;;7.60;5.60;;;;;;;;;;5053433;28;20036;-64
2023/03/05 00:21:37;;;;;;;6.60;5.05;;;;;;;;;;5053529;28;20103;-64
2023/03/05 00:24:05;;;;;;;7.00;5.30;;;;;;;;;;5053502;28;20116;-64
2023/03/05 00:26:33;;;;;;;7.25;5.20;;;;;;;;;;5053554;28;20079;-65
2023/03/05 00:28:59;;;;;;;7.13;5.35;;;;;;;;;;5053335;28;20055;-65
2023/03/05 00:31:30;;;;;;;7.68;5.82;;;;;;;;;;5053464;28;20057;-63
2023/03/05 00:33:59;;;;;;;6.82;5.22;;;;;;;;;;5052918;28;20087;-63
2023/03/05 00:36:25;;;;;;;6.43;4.97;;;;;;;;;;5053161;28;20062;-62
2023/03/05 00:38:51;;;;;;;7.75;5.72;;;;;;;;;;5053051;28;20032;-64
2023/03/05 00:41:17;;;;;;;7.20;5.35;;;;;;;;;;5053057;28;20029;-62
2023/03/05 00:43:44;;;;;;;6.97;5.40;;;;;;;;;;5053288;28;20067;-63
2023/03/05 00:46:10;;;;;;;6.55;5.38;;;;;;;;;;5053237;28;20029;-63
2023/03/05 00:48:36;;;;;;;7.53;5.43;;;;;;;;;;5051605;28;20021;-64
2023/03/05 00:51:02;;;;;;;8.23;6.07;;;;;;;;;;5053123;28;20111;-63
2023/03/05 00:53:27;;;;;;;6.97;5.10;;;;;;;;;;5052800;28;20029;-63
2023/03/05 00:55:53;;;;;;;6.38;5.50;;;;;;;;;;5053032;28;20033;-64
2023/03/05 00:58:18;;;;;;;6.32;4.75;;;;;;;;;;5052718;28;20021;-63
2023/03/05 01:00:44;;;;;;;7.80;5.32;;;;;;;;;;5052716;28;20032;-64
2023/03/05 01:03:09;;;;;;;7.55;5.63;;;;;;;;;;5053010;28;20029;-64
2023/03/05 01:05:35;;;;;;;6.55;5.00;;;;;;;;;;5052268;28;20025;-64
2023/03/05 01:08:01;;;;;;;7.65;5.18;;;;;;;;;;5052950;28;20095;-64
2023/03/05 01:10:26;;;;;;;6.20;5.00;;;;;;;;;;5052584;28;20025;-63
2023/03/05 01:12:53;;;;;;;6.57;4.70;;;;;;;;;;5052595;28;20086;-64
2023/03/05 01:15:18;;;;;;;6.03;5.13;;;;;;;;;;5052454;28;20036;-63
2023/03/05 01:17:44;;;;;;;7.75;5.63;;;;;;;;;;5052497;28;20116;-62
2023/03/05 01:20:13;;;;;;;6.32;5.00;;;;;;;;;;5052800;28;20049;-62
2023/03/05 01:22:39;;;;;;;7.68;5.13;;;;;;;;;;5052717;28;20107;-62
2023/03/05 01:25:05;;;;;;;7.95;5.75;;;;;;;;;;5052729;28;20413;-62
2023/03/05 01:27:31;;;;;;;6.13;5.38;;;;;;;;;;5052355;28;20060;-63
2023/03/05 01:29:56;;;;;;;6.40;4.90;;;;;;;;;;5052669;28;20029;-63
2023/03/05 01:32:22;;;;;;;6.88;5.35;;;;;;;;;;5052330;28;20044;-64
2023/03/05 01:34:47;;;;;;;7.22;4.90;;;;;;;;;;5052129;28;20087;-63
2023/03/05 01:37:13;;;;;;;6.00;4.38;;;;;;;;;;5052301;28;20074;-63
2023/03/05 01:39:38;;;;;;;6.47;4.93;;;;;;;;;;5052526;28;20025;-63
2023/03/05 01:42:04;;;;;;;5.72;5.13;;;;;;;;;;5052212;28;20025;-63
2023/03/05 01:44:31;;;;;;;6.32;4.57;;;;;;;;;;5052470;28;20029;-62
2023/03/05 01:46:57;;;;;;;6.45;5.13;;;;;;;;;;5052198;28;20032;-62
2023/03/05 01:49:32;;;;;;;6.20;4.88;;;;;;;;;;5052128;28;20028;-63
2023/03/05 01:52:18;;;;;;;6.90;5.28;;;;;;;;;;5052145;28;20025;-63
2023/03/05 01:54:48;;;;;;;6.43;5.10;;;;;;;;;;5052060;28;20032;-63
2023/03/05 01:57:25;;;;;;;5.93;4.93;;;;;;;;;;5052081;28;20029;-63
2023/03/05 01:59:56;;;;;;;6.88;4.78;;;;;;;;;;5052318;28;20039;-64
2023/03/05 02:02:22;;;;;;;6.20;5.00;;;;;;;;;;5052362;28;20780;-65
2023/03/05 02:04:59;;;;;;;6.43;4.68;;;;;;;;;;5052081;28;20121;-64
2023/03/05 02:07:25;;;;;;;6.85;5.35;;;;;;;;;;5052020;28;20025;-64
2023/03/05 02:09:51;;;;;;;6.78;5.22;;;;;;;;;;5051994;28;20068;-62
2023/03/05 02:12:17;;;;;;;8.65;5.20;;;;;;;;;;5051891;28;20048;-62
2023/03/05 02:14:45;;;;;;;6.32;5.03;;;;;;;;;;5051838;28;20116;-62
2023/03/05 02:17:11;;;;;;;5.65;4.72;;;;;;;;;;5053324;28;20476;-63
2023/03/05 02:19:49;;;;;;;5.68;4.82;;;;;;;;;;5055780;28;20048;-62
2023/03/05 02:22:16;;;;;;;6.28;4.90;;;;;;;;;;5055939;28;20099;-62
2023/03/05 02:24:42;;;;;;;6.15;4.93;;;;;;;;;;5055977;28;20112;-62
2023/03/05 02:27:08;;;;;;;7.78;5.28;;;;;;;;;;5055666;28;20492;-62
2023/03/05 02:29:37;;;;;;;6.60;4.97;;;;;;;;;;5055853;28;20041;-62
2023/03/05 02:32:03;;;;;;;5.53;4.77;;;;;;;;;;5055525;28;20071;-62
2023/03/05 02:34:29;;;;;;;6.40;4.50;;;;;;;;;;5055211;28;20045;-63
2023/03/05 02:36:55;;;;;;;6.03;4.70;;;;;;;;;;5055446;28;20024;-63
2023/03/05 02:39:20;;;;;;;5.40;4.55;;;;;;;;;;5055376;28;20029;-62
2023/03/05 02:41:46;;;;;;;4.90;4.40;;;;;;;;;;5055655;28;20032;-63
2023/03/05 02:44:11;;;;;;;5.43;4.65;;;;;;;;;;5055645;28;20545;-62
2023/03/05 02:46:37;;;;;;;5.57;4.60;;;;;;;;;;5055647;28;20481;-62
2023/03/05 02:49:03;;;;;;;6.63;5.20;;;;;;;;;;5055460;28;20021;-62
2023/03/05 02:51:29;;;;;;;6.57;5.15;;;;;;;;;;5055500;28;20025;-62
2023/03/05 02:53:54;;;;;;;5.65;4.75;;;;;;;;;;5055121;28;20380;-62
2023/03/05 02:56:20;;;;;;;6.30;5.00;;;;;;;;;;5055056;28;20032;-63
2023/03/05 02:58:45;;;;;;;5.75;4.43;;;;;;;;;;5055007;28;20029;-62
2023/03/05 03:01:11;;;;;;;5.63;4.70;;;;;;;;;;5055030;28;20048;-62
2023/03/05 03:03:36;;;;;;;6.82;4.88;;;;;;;;;;5054969;28;20110;-62
2023/03/05 03:06:02;;;;;;;7.18;5.05;;;;;;;;;;5054934;28;20025;-63
2023/03/05 03:08:28;;;;;;;7.47;5.35;;;;;;;;;;5055166;28;20024;-63
2023/03/05 03:10:55;;;;;;;6.47;4.85;;;;;;;;;;5055179;28;20021;-63
2023/03/05 03:13:24;;;;;;;5.95;4.70;;;;;;;;;;5054840;28;20043;-62
2023/03/05 03:15:49;;;;;;;6.90;5.13;;;;;;;;;;5054979;28;20025;-65
2023/03/05 03:18:15;;;;;;;6.00;4.60;;;;;;;;;;5054700;28;20075;-65
2023/03/05 03:20:41;;;;;;;7.75;4.95;;;;;;;;;;5054990;28;20029;-63
2023/03/05 03:23:07;;;;;;;5.93;4.57;;;;;;;;;;5054620;28;20477;-63
2023/03/05 03:25:33;;;;;;;6.13;4.43;;;;;;;;;;5053283;28;20085;-63
2023/03/05 03:27:58;;;;;;;5.28;4.18;;;;;;;;;;5054394;28;20025;-63
2023/03/05 03:30:24;;;;;;;5.68;4.65;;;;;;;;;;5054498;28;20025;-63
2023/03/05 03:32:51;;;;;;;6.57;4.80;;;;;;;;;;5054398;28;20025;-64
2023/03/05 03:35:16;;;;;;;5.50;4.40;;;;;;;;;;5054043;28;20048;-63
2023/03/05 03:37:42;;;;;;;6.38;4.47;;;;;;;;;;5054237;28;20032;-63
2023/03/05 03:40:10;;;;;;;5.15;4.50;;;;;;;;;;5054539;28;20039;-64
2023/03/05 03:42:35;;;;;;;5.30;4.75;;;;;;;;;;5054418;28;20365;-63
2023/03/05 03:45:02;;;;;;;6.20;4.85;;;;;;;;;;5054191;28;20028;-63
2023/03/05 03:47:29;;;;;;;4.80;4.13;;;;;;;;;;5054403;28;20029;-62
2023/03/05 03:49:54;;;;;;;6.55;5.43;;;;;;;;;;5054431;28;20029;-62
2023/03/05 03:52:21;;;;;;;6.15;4.60;;;;;;;;;;5054300;28;20496;-63
2023/03/05 03:54:48;;;;;;;6.18;4.82;;;;;;;;;;5053953;28;20064;-64
2023/03/05 03:57:14;;;;;;;4.72;4.00;;;;;;;;;;5053966;28;20021;-64
2023/03/05 03:59:39;;;;;;;6.40;4.47;;;;;;;;;;5054006;28;20146;-62
2023/03/05 04:02:05;;;;;;;6.22;4.68;;;;;;;;;;5053884;28;20035;-64
2023/03/05 04:04:30;;;;;;;4.95;4.35;;;;;;;;;;5053844;28;20044;-63
2023/03/05 04:06:56;;;;;;;5.35;4.50;;;;;;;;;;5053766;28;20025;-63
2023/03/05 04:09:22;;;;;;;6.00;4.88;;;;;;;;;;5053738;28;20032;-64
2023/03/05 04:11:47;;;;;;;5.43;4.32;;;;;;;;;;5053708;28;20059;-63
2023/03/05 04:14:13;;;;;;;6.38;4.85;;;;;;;;;;5053570;28;20029;-63
2023/03/05 04:16:38;;;;;;;6.85;4.55;;;;;;;;;;5052415;28;20033;-63
2023/03/05 04:19:04;;;;;;;4.75;3.90;;;;;;;;;;5053788;28;20029;-63
2023/03/05 04:21:29;;;;;;;5.65;4.32;;;;;;;;;;5053822;28;20439;-63
2023/03/05 04:23:55;;;;;;;6.43;4.70;;;;;;;;;;5053431;28;20422;-63
2023/03/05 04:26:21;;;;;;;6.03;4.65;;;;;;;;;;5053396;28;20044;-63
2023/03/05 04:28:47;;;;;;;6.82;5.07;;;;;;;;;;5052051;28;20025;-63
2023/03/05 04:31:12;;;;;;;6.07;4.57;;;;;;;;;;5053234;28;20047;-63
2023/03/05 04:33:38;;;;;;;6.80;4.22;;;;;;;;;;5053049;28;20104;-63
2023/03/05 04:36:04;;;;;;;5.68;4.57;;;;;;;;;;5052955;28;20099;-64
2023/03/05 04:38:29;;;;;;;5.60;4.35;;;;;;;;;;5053454;28;20493;-63
2023/03/05 04:40:55;;;;;;;6.43;4.57;;;;;;;;;;5052441;28;20023;-63
2023/03/05 04:43:21;;;;;;;4.90;4.30;;;;;;;;;;5053056;28;20021;-65
2023/03/05 04:45:46;;;;;;;7.55;4.45;;;;;;;;;;5052983;28;20075;-63
2023/03/05 04:48:12;;;;;;;5.45;4.43;;;;;;;;;;5053013;28;20061;-64
2023/03/05 04:50:38;;;;;;;4.70;4.20;;;;;;;;;;5052945;28;20029;-63
2023/03/05 04:53:04;;;;;;;6.00;4.65;;;;;;;;;;5053261;28;20091;-64
2023/03/05 04:55:29;;;;;;;5.00;4.10;;;;;;;;;;5052784;28;20473;-64
2023/03/05 04:57:55;;;;;;;5.25;4.43;;;;;;;;;;5052763;28;20037;-62
2023/03/05 05:00:21;;;;;;;5.75;4.43;;;;;;;;;;5051515;28;20075;-62
2023/03/05 05:02:49;;;;;;;6.85;4.45;;;;;;;;;;5052760;28;20492;-63
2023/03/05 05:05:17;;;;;;;6.28;4.78;;;;;;;;;;5052649;28;20025;-63
2023/03/05 05:07:43;;;;;;;5.47;4.35;;;;;;;;;;5052617;28;20415;-63
2023/03/05 05:10:10;;;;;;;5.72;4.57;;;;;;;;;;5052901;28;20154;-63
2023/03/05 05:12:36;;;;;;;5.78;4.50;;;;;;;;;;5052638;28;20028;-62
2023/03/05 05:15:03;;;;;;;5.03;4.15;;;;;;;;;;5052542;28;20029;-64
2023/03/05 05:17:31;;;;;;;5.95;4.38;;;;;;;;;;5051577;28;20494;-62
2023/03/05 05:19:58;;;;;;;5.93;4.63;;;;;;;;;;5051386;28;20028;-62
2023/03/05 05:22:24;;;;;;;6.18;4.80;;;;;;;;;;5052532;28;20036;-64
2023/03/05 05:24:49;;;;;;;5.63;4.53;;;;;;;;;;5052713;28;20384;-64
2023/03/05 05:27:15;;;;;;;6.00;4.70;;;;;;;;;;5052415;28;20063;-64
2023/03/05 05:29:40;;;;;;;6.13;4.63;;;;;;;;;;5052662;28;20039;-64
2023/03/05 05:32:06;;;;;;;6.30;4.57;;;;;;;;;;5052430;28;20082;-62
2023/03/05 05:34:32;;;;;;;4.68;4.10;;;;;;;;;;5052082;28;20045;-63
2023/03/05 05:36:57;;;;;;;4.45;3.92;;;;;;;;;;5052299;28;20025;-62
2023/03/05 05:39:24;;;;;;;5.25;4.47;;;;;;;;;;5052303;28;20024;-63
2023/03/05 05:41:51;;;;;;;5.97;4.20;;;;;;;;;;5052303;28;20021;-62
2023/03/05 05:44:17;;;;;;;6.47;4.30;;;;;;;;;;5052223;28;20028;-62
2023/03/05 05:46:42;;;;;;;6.97;4.78;;;;;;;;;;5052484;28;20044;-63
2023/03/05 05:49:08;;;;;;;5.68;4.10;;;;;;;;;;5052201;28;20512;-63
2023/03/05 05:51:33;;;;;;;7.10;4.60;;;;;;;;;;5054393;28;20037;-64
2023/03/05 05:53:59;;;;;;;5.97;4.30;;;;;;;;;;5056260;28;20021;-62
2023/03/05 05:56:24;;;;;;;5.40;4.18;;;;;;;;;;5056151;28;20025;-63
2023/03/05 05:58:50;;;;;;;5.38;4.53;;;;;;;;;;5056249;28;20021;-63
2023/03/05 06:01:23;;;;;;;5.95;4.47;;;;;;;;;;5056483;28;20027;-63
2023/03/05 06:03:48;;;;;;;4.78;4.05;;;;;;;;;;5056126;28;20653;-62
2023/03/05 06:06:17;;;;;;;5.68;4.13;;;;;;;;;;5056040;28;20116;-62
2023/03/05 06:08:43;;;;;;;4.90;4.25;;;;;;;;;;5055958;28;20476;-62
2023/03/05 06:11:09;;;;;;;5.15;4.07;;;;;;;;;;5056272;28;20381;-62
2023/03/05 06:13:35;;;;;;;5.20;4.30;;;;;;;;;;5056233;28;20051;-63
2023/03/05 06:16:04;;;;;;;4.57;4.00;;;;;;;;;;5055757;28;20029;-63
2023/03/05 06:18:29;;;;;;;4.55;4.15;;;;;;;;;;5056054;28;20029;-63
2023/03/05 06:21:01;;;;;;;5.90;4.55;;;;;;;;;;5055742;28;20361;-62
2023/03/05 06:23:27;;;;;;;4.78;4.28;;;;;;;;;;5055758;28;20079;-63
2023/03/05 06:25:54;;;;;;;5.18;4.30;;;;;;;;;;5055609;28;20071;-62
2023/03/05 06:28:20;;;;;;;6.13;4.38;;;;;;;;;;5055847;28;20025;-62
2023/03/05 06:30:45;;;;;;;4.70;4.20;;;;;;;;;;5055631;28;20539;-62
2023/03/05 06:33:11;;;;;;;4.65;3.75;;;;;;;;;;5055520;28;20033;-62
2023/03/05 06:35:41;;;;;;;5.75;4.57;;;;;;;;;;5055320;28;20037;-63
2023/03/05 06:38:07;;;;;;;5.78;4.00;;;;;;;;;;5055724;28;20033;-62
2023/03/05 06:40:33;;;;;;;4.15;3.75;;;;;;;;;;5055625;28;20409;-63
2023/03/05 06:42:58;;;;;;;5.43;4.15;;;;;;;;;;5055668;28;20027;-63
2023/03/05 06:45:24;;;;;;;4.53;4.05;;;;;;;;;;5055367;28;20071;-63
2023/03/05 06:47:49;;;;;;;4.60;3.83;;;;;;;;;;5055300;28;20060;-63
2023/03/05 06:50:15;;;;;;;4.80;4.10;;;;;;;;;;5055632;28;20100;-63
2023/03/05 06:52:40;;;;;;;4.55;3.90;;;;;;;;;;5055353;28;20503;-63
2023/03/05 06:55:07;;;;;;;5.18;4.07;;;;;;;;;;5053844;28;20029;-63
2023/03/05 06:57:33;;;;;;;5.20;4.35;;;;;;;;;;5055397;28;20033;-63
2023/03/05 06:59:58;;;;;;;5.45;3.72;;;;;;;;;;5055400;28;20531;-63
2023/03/05 07:02:24;;;;;;;5.13;3.97;;;;;;;;;;5054330;28;20029;-62
2023/03/05 07:04:49;;;;;;;6.97;4.63;;;;;;;;;;5054978;28;20384;-63
2023/03/05 07:07:15;;;;;;;4.50;3.92;;;;;;;;;;5054958;28;20021;-63
2023/03/05 07:09:43;;;;;;;4.25;3.60;;;;;;;;;;5054929;28;20024;-63
2023/03/05 07:12:10;;;;;;;5.43;3.97;;;;;;;;;;5054908;28;20067;-62
2023/03/05 07:14:37;;;;;;;5.05;4.20;;;;;;;;;;5054671;28;20082;-62
2023/03/05 07:17:05;;;;;;;5.20;3.95;;;;;;;;;;5054732;28;20029;-62
2023/03/05 07:19:30;;;;;;;5.05;4.05;;;;;;;;;;5053387;28;20493;-62
2023/03/05 07:21:56;;;;;;;4.63;4.10;;;;;;;;;;5054995;28;20028;-63
2023/03/05 07:24:26;;;;;;;5.57;4.15;;;;;;;;;;5054707;28;20108;-63
2023/03/05 07:26:51;;;;;;;6.38;4.25;;;;;;;;;;5053409;28;20484;-62
2023/03/05 07:29:17;;;;;;;5.03;3.90;;;;;;;;;;5054504;28;20056;-63
2023/03/05 07:31:42;;;;;;;4.72;4.18;;;;;;;;;;5054511;28;20032;-63
2023/03/05 07:34:09;;;;;;;4.40;3.90;;;;;;;;;;5054287;28;20491;-63
2023/03/05 07:36:34;;;;;;;4.80;4.07;;;;;;;;;;5054619;28;20025;-63
2023/03/05 07:39:00;;;;;;;5.00;4.00;;;;;;;;;;5054304;28;20537;-62
2023/03/05 07:41:26;;;;;;;5.35;4.00;;;;;;;;;;5054605;28;20143;-62
2023/03/05 07:43:53;;;;;;;4.38;3.85;;;;;;;;;;5052966;28;20241;-63
2023/03/05 07:46:21;;;;;;;5.07;4.22;;;;;;;;;;5054196;28;20405;-63
2023/03/05 07:48:46;;;;;;;4.40;3.92;;;;;;;;;;5054209;28;20021;-63
2023/03/05 07:51:15;;;;;;;4.03;3.58;;;;;;;;;;5054205;28;20032;-63
2023/03/05 07:53:44;;;;;;;3.97;3.30;;;;;;;;;;5053988;28;20029;-62
2023/03/05 07:56:10;;;;;;;4.30;3.78;;;;;;;;;;5054227;28;20025;-62
2023/03/05 07:58:35;;;;;;;5.47;4.15;;;;;;;;;;5053865;28;20071;-63
2023/03/05 08:01:02;;;;;;;5.43;4.20;;;;;;;;;;5054138;28;20036;-63
2023/03/05 08:03:27;;;;;;;5.50;3.95;;;;;;;;;;5054136;28;20351;-63
2023/03/05 08:05:53;;;;;;;5.95;3.92;;;;;;;;;;5053808;28;20037;-63
2023/03/05 08:08:18;;;;;;;6.57;4.18;;;;;;;;;;5054025;28;20033;-63
2023/03/05 08:10:44;;;;;;;4.57;4.00;;;;;;;;;;5053764;28;20040;-63
2023/03/05 08:13:10;;;;;;;4.95;4.18;;;;;;;;;;5053968;28;20016;-63
2023/03/05 08:15:37;;;;;;;4.10;3.70;;;;;;;;;;5052567;28;20355;-62
2023/03/05 08:18:03;;;;;;;4.22;3.70;;;;;;;;;;5053565;28;20424;-63
2023/03/05 08:20:29;;;;;;;4.47;3.88;;;;;;;;;;5053552;28;20025;-62
2023/03/05 08:22:54;;;;;;;4.38;3.97;;;;;;;;;;5053525;28;20029;-63
2023/03/05 08:25:20;;;;;;;5.25;3.92;;;;;;;;;;5053429;28;20040;-63
2023/03/05 08:27:47;;;;;;;4.22;3.83;;;;;;;;;;5053369;28;20049;-63
2023/03/05 08:30:20;;;;;;;4.47;3.60;;;;;;;;;;5053343;28;20068;-63
2023/03/05 08:32:48;;;;;;;5.20;4.00;;;;;;;;;;5053668;28;20043;-62
2023/03/05 08:35:14;;;;;;;5.05;3.55;;;;;;;;;;5053002;28;20091;-63
2023/03/05 08:37:39;;;;;;;5.18;3.92;;;;;;;;;;5053226;28;20048;-62
2023/03/05 08:40:05;;;;;;;4.65;3.67;;;;;;;;;;5053513;28;20488;-63
2023/03/05 08:42:32;;;;;;;4.35;3.80;;;;;;;;;;5053383;28;20033;-63
2023/03/05 08:44:58;;;;;;;4.38;3.58;;;;;;;;;;5053183;28;20472;-63
2023/03/05 08:47:26;;;;;;;4.20;3.72;;;;;;;;;;5053385;28;20021;-62
2023/03/05 08:49:54;;;;;;;4.85;3.80;;;;;;;;;;5053031;28;20036;-63
2023/03/05 08:52:21;;;;;;;4.18;3.60;;;;;;;;;;5052924;28;20516;-62
2023/03/05 08:54:47;;;;;;;4.55;3.55;;;;;;;;;;5053128;28;20369;-63
2023/03/05 08:57:13;;;;;;;4.53;3.80;;;;;;;;;;5052822;28;20025;-62
2023/03/05 08:59:39;;;;;;;4.13;3.50;;;;;;;;;;5052800;28;20082;-64
2023/03/05 09:02:04;;;;;;;4.68;3.55;;;;;;;;;;5051703;28;20086;-63
2023/03/05 09:04:30;;;;;;;5.97;4.00;;;;;;;;;;5048706;28;20493;-64
2023/03/05 09:06:56;;;;;;;4.95;3.95;;;;;;;;;;5048262;28;20155;-64
2023/03/05 09:09:23;;;;;;;4.50;3.72;;;;;;;;;;5047798;28;20460;-64
2023/03/05 09:11:50;;;;;;;4.63;4.00;;;;;;;;;;5048139;28;20025;-64
2023/03/05 09:14:16;;;;;;;4.63;3.78;;;;;;;;;;5050281;28;20029;-63
2023/03/05 09:16:42;;;;;;;3.75;3.35;;;;;;;;;;5051470;28;20032;-63
2023/03/05 09:19:09;;;;;;;4.25;3.25;;;;;;;;;;5051360;28;20048;-64
2023/03/05 09:21:35;;;;;;;4.43;3.90;;;;;;;;;;5051384;28;20032;-63
2023/03/05 09:24:01;;;;;;;3.75;3.40;;;;;;;;;;5051311;28;20116;-63
2023/03/05 09:26:27;;;;;;;4.38;3.42;;;;;;;;;;5050947;28;20021;-63
2023/03/05 09:28:53;;;;;;;4.18;3.78;;;;;;;;;;5051255;28;20024;-63
2023/03/05 09:31:18;;;;;;;6.53;3.72;;;;;;;;;;5051375;28;20021;-63
2023/03/05 09:33:45;;;;;;;4.60;3.67;;;;;;;;;;5050971;28;20053;-63
2023/03/05 09:36:22;;;;;;;4.30;3.50;;;;;;;;;;5049580;28;20055;-63
2023/03/05 09:38:48;;;;;;;5.00;3.72;;;;;;;;;;5050984;28;20151;-63
2023/03/05 09:41:36;;;;;;;4.43;3.75;;;;;;;;;;5049816;28;20032;-63
2023/03/05 09:44:08;;;;;;;3.85;3.42;;;;;;;;;;5046678;28;20024;-63
2023/03/05 09:46:54;;;;;;;4.78;3.78;;;;;;;;;;5046860;28;20104;-64
2023/03/05 09:49:45;;;;;;;4.10;3.30;;;;;;;;;;5046657;28;20354;-64
2023/03/05 09:52:18;;;;;;;4.72;3.50;;;;;;;;;;5046282;28;20021;-63
2023/03/05 09:54:48;;;;;;;5.07;3.78;;;;;;;;;;5047850;28;20021;-63
2023/03/05 09:57:21;;;;;;;5.80;3.97;;;;;;;;;;5046828;28;20021;-63
2023/03/05 09:59:56;;;;;;;4.68;3.92;;;;;;;;;;5047318;28;20863;-64
2023/03/05 10:02:27;;;;;;;5.05;3.55;;;;;;;;;;5046421;28;20029;-63
2023/03/05 10:05:03;;;;;;;4.43;3.58;;;;;;;;;;5046634;28;20087;-64
2023/03/05 10:07:42;;;;;;;4.13;3.40;;;;;;;;;;5045520;28;20021;-64
2023/03/05 10:10:16;;;;;;;3.97;3.53;;;;;;;;;;5046782;28;20052;-64
2023/03/05 10:12:42;;;;;;;4.60;3.58;;;;;;;;;;5046321;28;20025;-63
2023/03/05 10:15:16;;;;;;;3.83;3.38;;;;;;;;;;5048814;28;20029;-64
2023/03/05 10:17:54;;;;;;;4.43;3.38;;;;;;;;;;5041427;28;20021;-63
2023/03/05 10:20:41;;;;;;;3.55;3.25;;;;;;;;;;5047447;28;20120;-64
2023/03/05 10:23:27;;;;;;;4.15;3.72;;;;;;;;;;5049022;28;20158;-63
2023/03/05 10:26:09;;;;;;;4.00;3.60;;;;;;;;;;5050970;28;20048;-63
2023/03/05 10:28:42;;;;;;;4.00;3.60;;;;;;;;;;5043707;28;20025;-64
2023/03/05 10:31:16;;;;;;;3.78;3.33;;;;;;;;;;5049994;28;20493;-63
2023/03/05 10:33:54;;;;;;;4.20;3.30;;;;;;;;;;5051822;28;20198;-63
2023/03/05 10:36:59;;;;;;;4.45;3.13;;;;;;;;;;5049995;28;20103;-64
2023/03/05 10:40:06;;;;;;;3.58;3.17;;;;;;;;;;5053464;28;20033;-63
2023/03/05 10:42:56;;;;;;;3.85;3.45;;;;;;;;;;5055156;28;20033;-64
2023/03/05 10:45:37;;;;;;;3.53;3.23;;;;;;;;;;5055219;28;20078;-64
2023/03/05 10:48:29;;;;;;;4.43;3.70;;;;;;;;;;5054537;28;20025;-63
2023/03/05 10:51:01;;;;;;;3.92;3.42;;;;;;;;;;5053948;28;20029;-64
2023/03/05 10:53:57;;;;;;;3.97;3.30;;;;;;;;;;5054239;28;20013;-63
2023/03/05 10:56:26;;;;;;;4.35;2.97;;;;;;;;;;5046843;28;20033;-63
2023/03/05 10:58:52;;;;;;;3.67;3.35;;;;;;;;;;5055482;28;20049;-63
2023/03/05 11:01:21;;;;;;;3.78;3.42;;;;;;;;;;5055046;28;20089;-63
2023/03/05 11:04:23;;;;;;;3.60;3.08;;;;;;;;;;5047888;28;20468;-63
2023/03/05 11:06:50;;;;;;;3.75;3.30;;;;;;;;;;5035131;28;20156;-63
2023/03/05 11:09:31;;;;;;;3.85;3.33;;;;;;;;;;5035019;28;20025;-63
2023/03/05 11:12:05;;;;;;;3.35;3.00;;;;;;;;;;5035266;28;20071;-63
2023/03/05 11:14:32;;;;;;;4.47;3.67;;;;;;;;;;5035264;28;20040;-64
2023/03/05 11:17:22;;;;;;;3.92;3.50;;;;;;;;;;5034859;28;20588;-63
2023/03/05 11:19:48;;;;;;;3.88;3.28;;;;;;;;;;5035175;28;20033;-63
2023/03/05 11:22:19;;;;;;;3.90;3.50;;;;;;;;;;5040544;28;20473;-64
2023/03/05 11:25:11;;;;;;;3.65;3.20;;;;;;;;;;5054497;28;20025;-64
2023/03/05 11:27:43;;;;;;;3.72;3.33;;;;;;;;;;5054527;28;20025;-63
2023/03/05 11:30:26;;;;;;;4.05;3.22;;;;;;;;;;5054533;28;20078;-63
2023/03/05 11:33:21;;;;;;;3.80;3.15;;;;;;;;;;5054371;28;20500;-64
2023/03/05 11:35:48;;;;;;;4.10;3.45;;;;;;;;;;5054063;28;20060;-63
2023/03/05 11:38:20;;;;;;;3.42;3.10;;;;;;;;;;5054304;28;20074;-63
2023/03/05 11:40:47;;;;;;;3.35;3.05;;;;;;;;;;5054583;28;20415;-63
2023/03/05 11:43:20;;;;;;;4.40;3.45;;;;;;;;;;5054231;28;20507;-63
2023/03/05 11:45:49;;;;;;;3.63;3.28;;;;;;;;;;5054136;28;20086;-63
2023/03/05 11:48:29;;;;;;;3.88;3.40;;;;;;;;;;5039170;28;20071;-63
2023/03/05 11:50:59;;;;;;;3.50;2.88;;;;;;;;;;5032480;28;20033;-63
2023/03/05 11:53:35;;;;;;;4.40;3.30;;;;;;;;;;5032757;28;20052;-63
2023/03/05 11:56:12;;;;;;;3.03;2.72;;;;;;;;;;5032581;28;20172;-63
2023/03/05 11:58:48;;;;;;;3.33;3.03;;;;;;;;;;5033520;28;20051;-63
2023/03/05 12:01:24;;;;;;;4.45;3.20;;;;;;;;;;5032579;28;20431;-63
2023/03/05 12:03:50;;;;;;;3.80;3.25;;;;;;;;;;5032431;28;20036;-63
2023/03/05 12:06:43;;;;;;;3.38;3.08;;;;;;;;;;5032457;28;20053;-63
2023/03/05 12:09:18;;;;;;;3.90;3.35;;;;;;;;;;5028044;28;20540;-63
2023/03/05 12:11:49;;;;;;;4.47;2.97;;;;;;;;;;5032180;28;20034;-63
2023/03/05 12:14:24;;;;;;;3.85;3.28;;;;;;;;;;5032692;28;20108;-64
2023/03/05 12:16:59;;;;;;;5.90;3.30;;;;;;;;;;5032250;28;20045;-63
2023/03/05 12:19:46;;;;;;;3.50;3.17;;;;;;;;;;5032126;28;20033;-64
2023/03/05 12:22:17;;;;;;;3.65;3.30;;;;;;;;;;5048944;28;20059;-64
2023/03/05 12:24:43;;;;;;;4.18;2.92;;;;;;;;;;5032172;28;20048;-64
2023/03/05 12:27:13;;;;;;;5.13;3.33;;;;;;;;;;5031836;28;20385;-63
2023/03/05 12:29:48;;;;;;;7.38;3.60;;;;;;;;;;5032105;28;20033;-65
2023/03/05 12:32:32;;;;;;;5.90;3.65;;;;;;;;;;5047104;28;20431;-65
2023/03/05 12:34:58;;;;;;;9.25;3.30;;;;;;;;;;5051422;28;20060;-63
2023/03/05 12:37:24;;;;;;;8.45;3.35;;;;;;;;;;5051459;28;20124;-64
2023/03/05 12:40:19;;;;;;;4.47;3.20;;;;;;;;;;5050327;28;20108;-64
2023/03/05 12:42:47;;;;;;;5.18;4.38;;;;;;;;;;5048169;28;20114;-63
2023/03/05 12:45:14;;;;;;;7.38;4.55;;;;;;;;;;5050282;28;20104;-63
2023/03/05 12:47:45;;;;;;;5.75;4.57;;;;;;;;;;5049987;28;20439;-63
2023/03/05 12:50:25;;;;;;;6.10;4.53;;;;;;;;;;5051293;28;20112;-63
2023/03/05 12:52:56;;;;;;;7.13;4.68;;;;;;;;;;5051279;28;20056;-63
2023/03/05 12:55:27;;;;;;;8.05;4.85;;;;;;;;;;5051166;28;20029;-63
2023/03/05 12:58:25;;;;;;;5.93;4.72;;;;;;;;;;5048560;28;20044;-65
2023/03/05 13:01:03;;;;;;;5.82;4.45;;;;;;;;;;5049369;28;20028;-65
2023/03/05 13:03:39;;;;;;;6.82;4.50;;;;;;;;;;5048929;28;20032;-65
2023/03/05 13:06:06;;;;;;;5.65;4.25;;;;;;;;;;5049605;28;20028;-65
2023/03/05 13:08:36;;;;;;;9.65;3.85;;;;;;;;;;5050191;28;20031;-63
2023/03/05 13:11:05;;;;;;;5.90;4.20;;;;;;;;;;5050894;28;20052;-63
2023/03/05 13:13:40;;;;;;;8.25;4.72;;;;;;;;;;5050902;28;20033;-65
2023/03/05 13:16:25;;;;;;;7.13;4.00;;;;;;;;;;5050842;28;20585;-64
2023/03/05 13:18:52;;;;;;;8.85;4.72;;;;;;;;;;5050800;28;20075;-64
2023/03/05 13:21:23;;;;;;;7.07;4.43;;;;;;;;;;5050264;28;20051;-64
2023/03/05 13:23:56;;;;;;;;;;;;;;;;;;5048942;28;20737;-64
2023/03/05 13:26:42;;;;;;;9.10;4.25;;;;;;;;;;5049458;28;19917;-64
2023/03/05 13:29:15;;;;;;;9.40;4.38;;;;;;;;;;5049813;28;20481;-64
2023/03/05 13:31:54;;;;;;;5.07;3.90;;;;;;;;;;5049384;28;20127;-64
2023/03/05 13:34:22;;;;;;;5.80;4.28;;;;;;;;;;5049604;28;20148;-64
2023/03/05 13:37:15;;;;;;;4.55;3.60;;;;;;;;;;5049936;28;20107;-64
2023/03/05 13:39:55;;;;;;;8.32;4.00;;;;;;;;;;5047469;28;20437;-64
2023/03/05 13:42:33;;;;;;;4.13;3.55;;;;;;;;;;5050883;28;20024;-64
2023/03/05 13:45:06;;;;;;;5.93;3.97;;;;;;;;;;5050594;28;20063;-64
2023/03/05 13:47:34;;;;;;;7.72;3.75;;;;;;;;;;5050518;28;20100;-64
2023/03/05 13:50:06;;;;;;;11.15;3.75;;;;;;;;;;5050799;28;20029;-64
2023/03/05 13:52:37;;;;;;;6.15;3.50;;;;;;;;;;5050502;28;20477;-64
2023/03/05 13:55:15;;;;;;;5.65;3.58;;;;;;;;;;5050556;28;20043;-65
2023/03/05 13:57:42;;;;;;;5.47;3.55;;;;;;;;;;5050552;28;20481;-65
2023/03/05 14:00:26;;;;;;;4.13;3.10;;;;;;;;;;5050435;28;20051;-65
2023/03/05 14:02:57;;;;;;;6.97;3.83;;;;;;;;;;5050404;28;20032;-65
2023/03/05 14:05:22;;;;;;;5.45;3.35;;;;;;;;;;5049895;28;20021;-65
2023/03/05 14:07:50;;;;;;;6.10;3.78;;;;;;;;;;5050311;28;20051;-65
2023/03/05 14:10:35;;;;;;;5.80;3.35;;;;;;;;;;5050269;28;20048;-65
2023/03/05 14:13:05;;;;;;;3.83;2.92;;;;;;;;;;5053253;28;20037;-65
2023/03/05 14:15:33;;;;;;;3.58;3.10;;;;;;;;;;5054047;28;20507;-65
2023/03/05 14:18:17;;;;;;;4.63;3.33;;;;;;;;;;5054292;28;20047;-65
2023/03/05 14:21:19;;;;;;;5.32;3.50;;;;;;;;;;5054367;28;20483;-65
2023/03/05 14:23:47;;;;;;;4.55;3.05;;;;;;;;;;5054150;28;20033;-64
2023/03/05 14:26:30;;;;;;;3.85;3.35;;;;;;;;;;5052755;28;20090;-64
2023/03/05 14:29:03;;;;;;;4.38;3.42;;;;;;;;;;5054265;28;20122;-65
2023/03/05 14:31:34;;;;;;;3.38;2.85;;;;;;;;;;5053987;28;20025;-65
2023/03/05 14:34:06;;;;;;;6.88;3.03;;;;;;;;;;5053824;28;20422;-65
2023/03/05 14:36:32;;;;;;;3.85;3.08;;;;;;;;;;5053966;28;20053;-65
2023/03/05 14:38:59;;;;;;;4.07;3.00;;;;;;;;;;5053855;28;20025;-65
2023/03/05 14:41:35;;;;;;;3.17;2.88;;;;;;;;;;5054092;28;20032;-65
2023/03/05 14:44:01;;;;;;;4.45;3.03;;;;;;;;;;5053935;28;20384;-65
2023/03/05 14:46:27;;;;;;;4.38;3.20;;;;;;;;;;5053733;28;20032;-65
2023/03/05 14:48:53;;;;;;;4.15;3.17;;;;;;;;;;5053542;28;20062;-65
2023/03/05 14:51:20;;;;;;;3.88;2.85;;;;;;;;;;5053836;28;20032;-65
2023/03/05 14:53:49;;;;;;;3.40;3.00;;;;;;;;;;5052542;28;20034;-65
2023/03/05 14:56:23;;;;;;;3.35;3.05;;;;;;;;;;5053490;28;20484;-65
2023/03/05 14:58:49;;;;;;;3.85;3.08;;;;;;;;;;5052054;28;20032;-65